AAL36 KDFW-LEMD
Flight info
| Callsign | AAL36 |
|---|---|
| Flight time | N/A |
| Altitude | 35000 |
| Route | ZACHH4 BSKAT DCT MUDHO DCT HENSY DCT BNA DCT SWAPP Q34 TONIO DCT BKW DCT FANPO/N0469F370 DCT BROSS DCT RIFLE DCT ACK DCT KANNI N171E PORTI/M080F370 DCT 47N050W 47N040W 47N030W 46N020W DCT PASAS/N0460F370 DCT STG DCT DESAT DCT ZMR |
| Aircraft | B772/H-SDE2E3FGHIJ5LORVWXY/LB1D1 |
Departure
| Time | 2026-05-01 09:25 |
|---|---|
| Airport | Dallas Fort Worth International Airport (KDFW) |
Arrival
| Time | N/A |
|---|---|
| Airport | Adolfo Suárez Madrid–Barajas Airport (LEMD) |
| Time | Latitude | Longitude | Altitude | Speed | Heading |
|---|---|---|---|---|---|
| 2026-05-01 08:51 | 32.90373 | -97.03507 | 621 ft | 0 kts | 311° |
| 2026-05-01 09:09 | 32.90372 | -97.03507 | 621 ft | 1 kts | 311° |
| 2026-05-01 09:09 | 32.90362 | -97.03494 | 621 ft | 2 kts | 323° |
| 2026-05-01 09:10 | 32.90349 | -97.03485 | 621 ft | 2 kts | 333° |
| 2026-05-01 09:10 | 32.90336 | -97.03478 | 621 ft | 2 kts | 343° |
| 2026-05-01 09:10 | 32.90321 | -97.03474 | 621 ft | 2 kts | 353° |
| 2026-05-01 09:10 | 32.90306 | -97.03473 | 621 ft | 2 kts | 3° |
| 2026-05-01 09:11 | 32.90291 | -97.03475 | 621 ft | 2 kts | 13° |
| 2026-05-01 09:11 | 32.90277 | -97.03481 | 621 ft | 2 kts | 23° |
| 2026-05-01 09:11 | 32.90264 | -97.03489 | 621 ft | 2 kts | 28° |
| 2026-05-01 09:11 | 32.90257 | -97.03493 | 621 ft | 0 kts | 28° |
| 2026-05-01 09:12 | 32.90258 | -97.03493 | 621 ft | 0 kts | 28° |
| 2026-05-01 09:17 | 32.90325 | -97.03415 | 621 ft | 13 kts | 75° |
| 2026-05-01 09:17 | 32.90330 | -97.03293 | 621 ft | 15 kts | 91° |
| 2026-05-01 09:17 | 32.90209 | -97.03188 | 621 ft | 14 kts | 179° |
| 2026-05-01 09:18 | 32.90107 | -97.03186 | 621 ft | 14 kts | 177° |
| 2026-05-01 09:18 | 32.89898 | -97.03190 | 621 ft | 15 kts | 179° |
| 2026-05-01 09:19 | 32.89674 | -97.03192 | 621 ft | 18 kts | 180° |
| 2026-05-01 09:19 | 32.89540 | -97.03192 | 621 ft | 19 kts | 180° |
| 2026-05-01 09:19 | 32.89407 | -97.03191 | 621 ft | 18 kts | 178° |
| 2026-05-01 09:20 | 32.89147 | -97.03193 | 621 ft | 18 kts | 181° |
| 2026-05-01 09:20 | 32.88895 | -97.03193 | 621 ft | 17 kts | 181° |
| 2026-05-01 09:21 | 32.88648 | -97.03201 | 621 ft | 17 kts | 180° |
| 2026-05-01 09:21 | 32.88526 | -97.03202 | 621 ft | 17 kts | 180° |
| 2026-05-01 09:21 | 32.88284 | -97.03199 | 621 ft | 17 kts | 181° |
| 2026-05-01 09:22 | 32.88047 | -97.03204 | 621 ft | 11 kts | 181° |
| 2026-05-01 09:22 | 32.87917 | -97.03178 | 621 ft | 14 kts | 123° |
| 2026-05-01 09:23 | 32.87902 | -97.03035 | 621 ft | 18 kts | 91° |
| 2026-05-01 09:23 | 32.87900 | -97.02755 | 621 ft | 13 kts | 88° |
| 2026-05-01 09:24 | 32.87958 | -97.02620 | 621 ft | 7 kts | 356° |
| 2026-05-01 09:24 | 32.87960 | -97.02621 | 621 ft | 0 kts | 356° |
| 2026-05-01 09:24 | 32.87991 | -97.02622 | 621 ft | 24 kts | 359° |
| 2026-05-01 09:25 | 32.89313 | -97.02611 | 621 ft | 155 kts | 1° |
| 2026-05-01 09:25 | 32.91722 | -97.02749 | 1470 ft | 181 kts | 2° |
| 2026-05-01 09:26 | 32.92997 | -97.02749 | 2014 ft | 187 kts | 6° |
| 2026-05-01 09:26 | 32.95903 | -97.02687 | 2461 ft | 229 kts | 5° |
| 2026-05-01 09:26 | 32.97572 | -97.02654 | 2820 ft | 248 kts | 5° |
| 2026-05-01 09:27 | 33.01056 | -97.02596 | 4242 ft | 255 kts | 3° |
| 2026-05-01 09:27 | 33.02843 | -97.02568 | 4925 ft | 260 kts | 2° |
| 2026-05-01 09:27 | 33.04663 | -97.02448 | 5599 ft | 263 kts | 13° |
| 2026-05-01 09:28 | 33.06336 | -97.01563 | 6195 ft | 269 kts | 37° |
| 2026-05-01 09:28 | 33.07557 | -96.99858 | 6751 ft | 277 kts | 63° |
| 2026-05-01 09:28 | 33.08068 | -96.97637 | 7368 ft | 283 kts | 82° |
| 2026-05-01 09:28 | 33.08229 | -96.95309 | 8053 ft | 284 kts | 85° |
| 2026-05-01 09:29 | 33.07900 | -96.90581 | 9175 ft | 293 kts | 98° |
| 2026-05-01 09:29 | 33.07553 | -96.88192 | 9757 ft | 295 kts | 97° |
| 2026-05-01 09:30 | 33.06853 | -96.83214 | 10308 ft | 322 kts | 97° |
| 2026-05-01 09:30 | 33.06476 | -96.80507 | 10464 ft | 341 kts | 98° |
| 2026-05-01 09:30 | 33.05653 | -96.74613 | 10766 ft | 379 kts | 98° |
| 2026-05-01 09:31 | 33.05209 | -96.71444 | 11079 ft | 393 kts | 98° |
| 2026-05-01 09:31 | 33.04755 | -96.68203 | 11688 ft | 400 kts | 98° |
| 2026-05-01 09:31 | 33.03823 | -96.61572 | 12931 ft | 412 kts | 99° |
| 2026-05-01 09:32 | 33.03344 | -96.58177 | 13482 ft | 420 kts | 99° |
| 2026-05-01 09:32 | 33.02355 | -96.51203 | 14679 ft | 433 kts | 100° |
| 2026-05-01 09:32 | 33.01850 | -96.47657 | 15294 ft | 439 kts | 100° |
| 2026-05-01 09:33 | 33.01336 | -96.44056 | 15840 ft | 446 kts | 101° |
| 2026-05-01 09:33 | 33.00813 | -96.40397 | 16368 ft | 454 kts | 102° |
| 2026-05-01 09:33 | 33.00588 | -96.32762 | 17383 ft | 473 kts | 83° |
| 2026-05-01 09:34 | 33.01249 | -96.28901 | 17898 ft | 479 kts | 73° |
| 2026-05-01 09:34 | 33.02407 | -96.25173 | 18368 ft | 485 kts | 65° |
| 2026-05-01 09:34 | 33.05129 | -96.17808 | 19709 ft | 489 kts | 65° |
| 2026-05-01 09:35 | 33.06483 | -96.14099 | 20302 ft | 492 kts | 65° |
| 2026-05-01 09:35 | 33.09206 | -96.06542 | 21355 ft | 503 kts | 65° |
| 2026-05-01 09:35 | 33.10583 | -96.02692 | 21920 ft | 508 kts | 65° |
| 2026-05-01 09:36 | 33.11966 | -95.98803 | 22556 ft | 510 kts | 65° |
| 2026-05-01 09:36 | 33.13356 | -95.94880 | 23130 ft | 514 kts | 65° |
| 2026-05-01 09:36 | 33.14750 | -95.90934 | 23547 ft | 523 kts | 65° |
| 2026-05-01 09:36 | 33.16165 | -95.86918 | 23972 ft | 530 kts | 66° |
| 2026-05-01 09:37 | 33.17589 | -95.82864 | 24512 ft | 534 kts | 66° |
| 2026-05-01 09:37 | 33.20464 | -95.74636 | 25542 ft | 544 kts | 66° |
| 2026-05-01 09:37 | 33.21918 | -95.70460 | 26012 ft | 549 kts | 66° |
| 2026-05-01 09:38 | 33.24867 | -95.61971 | 26913 ft | 560 kts | 67° |
| 2026-05-01 09:38 | 33.26356 | -95.57674 | 27404 ft | 563 kts | 66° |
| 2026-05-01 09:38 | 33.27855 | -95.53346 | 27824 ft | 568 kts | 66° |
| 2026-05-01 09:39 | 33.30893 | -95.44552 | 28590 ft | 579 kts | 67° |
| 2026-05-01 09:39 | 33.32424 | -95.40110 | 29002 ft | 583 kts | 67° |
| 2026-05-01 09:39 | 33.33969 | -95.35622 | 29428 ft | 587 kts | 67° |
| 2026-05-01 09:40 | 33.35532 | -95.31073 | 29904 ft | 589 kts | 67° |
| 2026-05-01 09:40 | 33.38640 | -95.22013 | 30961 ft | 591 kts | 68° |
| 2026-05-01 09:40 | 33.40190 | -95.17486 | 31541 ft | 590 kts | 68° |
| 2026-05-01 09:41 | 33.41736 | -95.12962 | 32080 ft | 590 kts | 68° |
| 2026-05-01 09:41 | 33.44828 | -95.03899 | 33032 ft | 591 kts | 68° |
| 2026-05-01 09:41 | 33.46372 | -94.99360 | 33508 ft | 592 kts | 68° |
| 2026-05-01 09:42 | 33.47920 | -94.94808 | 34061 ft | 591 kts | 68° |
| 2026-05-01 09:42 | 33.49461 | -94.90266 | 34642 ft | 589 kts | 68° |
| 2026-05-01 09:42 | 33.52556 | -94.81127 | 35044 ft | 595 kts | 67° |
| 2026-05-01 09:43 | 33.55695 | -94.71835 | 35049 ft | 604 kts | 68° |
| 2026-05-01 09:43 | 33.58848 | -94.62472 | 35047 ft | 601 kts | 67° |
| 2026-05-01 09:44 | 33.61917 | -94.53325 | 35051 ft | 587 kts | 68° |
| 2026-05-01 09:44 | 33.63433 | -94.48801 | 35052 ft | 589 kts | 68° |
| 2026-05-01 09:45 | 33.66486 | -94.39666 | 35058 ft | 591 kts | 67° |
| 2026-05-01 09:45 | 33.71075 | -94.25964 | 35020 ft | 588 kts | 64° |
| 2026-05-01 09:46 | 33.74968 | -94.17353 | 35039 ft | 586 kts | 57° |
| 2026-05-01 09:46 | 33.79044 | -94.08879 | 35043 ft | 586 kts | 57° |
| 2026-05-01 09:47 | 33.83120 | -94.00374 | 35048 ft | 589 kts | 57° |
| 2026-05-01 09:47 | 33.87192 | -93.91843 | 35049 ft | 587 kts | 58° |
| 2026-05-01 09:48 | 33.91256 | -93.83302 | 35053 ft | 590 kts | 58° |
| 2026-05-01 09:48 | 33.95343 | -93.74685 | 35059 ft | 589 kts | 56° |
| 2026-05-01 09:49 | 33.99376 | -93.66161 | 35059 ft | 588 kts | 57° |
| 2026-05-01 09:49 | 34.03372 | -93.57569 | 35062 ft | 589 kts | 62° |
| 2026-05-01 09:50 | 34.06309 | -93.48303 | 35067 ft | 593 kts | 71° |
| 2026-05-01 09:50 | 34.08914 | -93.38885 | 35064 ft | 591 kts | 70° |
| 2026-05-01 09:51 | 34.11507 | -93.29465 | 35041 ft | 590 kts | 71° |
| 2026-05-01 09:51 | 34.14091 | -93.20047 | 35039 ft | 590 kts | 71° |
| 2026-05-01 09:52 | 34.16666 | -93.10633 | 35044 ft | 591 kts | 71° |
| 2026-05-01 09:52 | 34.19243 | -93.01177 | 35053 ft | 591 kts | 70° |
| 2026-05-01 09:53 | 34.21809 | -92.91731 | 35056 ft | 593 kts | 70° |
| 2026-05-01 09:53 | 34.24369 | -92.82273 | 35054 ft | 591 kts | 70° |
| 2026-05-01 09:54 | 34.26921 | -92.72815 | 35058 ft | 591 kts | 70° |
| 2026-05-01 09:54 | 34.29464 | -92.63357 | 35056 ft | 593 kts | 70° |
| 2026-05-01 09:55 | 34.32003 | -92.53880 | 35055 ft | 591 kts | 71° |
| 2026-05-01 09:55 | 34.34534 | -92.44400 | 35061 ft | 594 kts | 69° |
| 2026-05-01 09:56 | 34.37068 | -92.34873 | 35051 ft | 591 kts | 71° |
| 2026-05-01 09:56 | 34.39573 | -92.25427 | 35030 ft | 592 kts | 71° |
| 2026-05-01 09:57 | 34.42099 | -92.15866 | 35034 ft | 595 kts | 70° |
| 2026-05-01 09:57 | 34.44602 | -92.06359 | 35032 ft | 592 kts | 71° |
| 2026-05-01 09:58 | 34.47096 | -91.96852 | 35036 ft | 593 kts | 71° |
| 2026-05-01 09:58 | 34.49578 | -91.87356 | 35040 ft | 590 kts | 71° |
| 2026-05-01 09:59 | 34.52052 | -91.77863 | 35054 ft | 594 kts | 71° |
| 2026-05-01 09:59 | 34.54534 | -91.68297 | 35061 ft | 594 kts | 70° |
| 2026-05-01 10:00 | 34.56996 | -91.58777 | 35067 ft | 593 kts | 71° |
| 2026-05-01 10:00 | 34.59449 | -91.49255 | 35071 ft | 592 kts | 70° |
| 2026-05-01 10:01 | 34.61895 | -91.39731 | 35071 ft | 594 kts | 71° |
| 2026-05-01 10:01 | 34.64353 | -91.30122 | 35039 ft | 594 kts | 71° |
| 2026-05-01 10:02 | 34.66790 | -91.20562 | 35044 ft | 593 kts | 71° |
| 2026-05-01 10:02 | 34.69229 | -91.10959 | 35043 ft | 594 kts | 71° |
| 2026-05-01 10:03 | 34.71666 | -91.01327 | 35047 ft | 594 kts | 71° |
| 2026-05-01 10:03 | 34.74084 | -90.91733 | 35051 ft | 594 kts | 71° |
| 2026-05-01 10:04 | 34.76495 | -90.82136 | 35053 ft | 596 kts | 71° |
| 2026-05-01 10:04 | 34.78896 | -90.72538 | 35054 ft | 592 kts | 71° |
| 2026-05-01 10:05 | 34.81291 | -90.62931 | 35054 ft | 595 kts | 70° |
| 2026-05-01 10:05 | 34.83680 | -90.53314 | 35061 ft | 594 kts | 70° |
| 2026-05-01 10:06 | 34.86072 | -90.43648 | 35063 ft | 595 kts | 71° |
| 2026-05-01 10:06 | 34.88461 | -90.33954 | 35061 ft | 596 kts | 71° |
| 2026-05-01 10:07 | 34.90852 | -90.24219 | 35040 ft | 596 kts | 71° |
| 2026-05-01 10:07 | 34.93221 | -90.14534 | 35045 ft | 595 kts | 71° |
| 2026-05-01 10:08 | 34.96204 | -90.05195 | 35053 ft | 594 kts | 60° |
| 2026-05-01 10:08 | 34.97989 | -90.00635 | 35052 ft | 594 kts | 59° |
| 2026-05-01 10:09 | 35.01527 | -89.91597 | 35054 ft | 587 kts | 59° |
| 2026-05-01 10:09 | 35.05040 | -89.82572 | 35059 ft | 590 kts | 59° |
| 2026-05-01 10:10 | 35.08550 | -89.73503 | 35061 ft | 590 kts | 59° |
| 2026-05-01 10:10 | 35.13813 | -89.59837 | 35061 ft | 589 kts | 60° |
| 2026-05-01 10:11 | 35.17304 | -89.50733 | 35063 ft | 592 kts | 59° |
| 2026-05-01 10:11 | 35.20791 | -89.41605 | 35064 ft | 587 kts | 59° |
| 2026-05-01 10:12 | 35.24254 | -89.32518 | 35039 ft | 590 kts | 59° |
| 2026-05-01 10:13 | 35.29439 | -89.18860 | 35042 ft | 590 kts | 60° |
| 2026-05-01 10:13 | 35.32894 | -89.09725 | 35041 ft | 588 kts | 60° |
| 2026-05-01 10:14 | 35.37804 | -88.95870 | 35046 ft | 591 kts | 62° |
| 2026-05-01 10:14 | 35.40998 | -88.86584 | 35048 ft | 590 kts | 62° |
| 2026-05-01 10:15 | 35.44187 | -88.77305 | 35054 ft | 590 kts | 62° |
| 2026-05-01 10:15 | 35.47376 | -88.68015 | 35054 ft | 589 kts | 62° |
| 2026-05-01 10:16 | 35.50558 | -88.58727 | 35053 ft | 589 kts | 62° |
| 2026-05-01 10:17 | 35.55307 | -88.44817 | 35054 ft | 591 kts | 62° |
| 2026-05-01 10:17 | 35.60077 | -88.30786 | 35029 ft | 589 kts | 62° |
| 2026-05-01 10:18 | 35.64821 | -88.16772 | 35034 ft | 592 kts | 62° |
| 2026-05-01 10:19 | 35.67972 | -88.07427 | 35038 ft | 589 kts | 63° |
| 2026-05-01 10:19 | 35.71105 | -87.98106 | 35040 ft | 590 kts | 62° |
| 2026-05-01 10:20 | 35.75790 | -87.84117 | 35042 ft | 591 kts | 63° |
| 2026-05-01 10:20 | 35.78905 | -87.74777 | 35046 ft | 588 kts | 62° |
| 2026-05-01 10:21 | 35.83571 | -87.60740 | 35045 ft | 592 kts | 62° |
| 2026-05-01 10:22 | 35.88229 | -87.46653 | 35046 ft | 590 kts | 62° |
| 2026-05-01 10:23 | 35.92877 | -87.32537 | 35022 ft | 593 kts | 63° |
| 2026-05-01 10:23 | 35.97495 | -87.18441 | 35018 ft | 592 kts | 63° |
| 2026-05-01 10:24 | 36.03641 | -86.99576 | 35023 ft | 590 kts | 62° |
| 2026-05-01 10:25 | 36.09749 | -86.80708 | 35026 ft | 590 kts | 62° |
| 2026-05-01 10:26 | 36.12791 | -86.71268 | 35034 ft | 592 kts | 62° |
| 2026-05-01 10:27 | 36.18898 | -86.52416 | 35045 ft | 588 kts | 61° |
| 2026-05-01 10:28 | 36.23473 | -86.38267 | 35050 ft | 590 kts | 62° |
| 2026-05-01 10:28 | 36.28029 | -86.24097 | 35017 ft | 588 kts | 63° |
| 2026-05-01 10:29 | 36.32560 | -86.09938 | 35014 ft | 589 kts | 62° |
| 2026-05-01 10:30 | 36.38569 | -85.91053 | 35021 ft | 589 kts | 63° |
| 2026-05-01 10:31 | 36.44560 | -85.72098 | 35028 ft | 590 kts | 62° |
| 2026-05-01 10:32 | 36.49051 | -85.57806 | 35028 ft | 590 kts | 62° |
| 2026-05-01 10:33 | 36.55012 | -85.38730 | 35032 ft | 591 kts | 62° |
| 2026-05-01 10:34 | 36.59461 | -85.24407 | 35004 ft | 589 kts | 62° |
| 2026-05-01 10:34 | 36.62409 | -85.14876 | 35003 ft | 589 kts | 63° |
| 2026-05-01 10:35 | 36.66820 | -85.00557 | 35013 ft | 590 kts | 62° |
| 2026-05-01 10:35 | 36.69743 | -84.91027 | 35024 ft | 590 kts | 62° |
| 2026-05-01 10:36 | 36.74118 | -84.76702 | 35031 ft | 590 kts | 63° |
| 2026-05-01 10:37 | 36.77025 | -84.67145 | 35030 ft | 589 kts | 63° |
| 2026-05-01 10:37 | 36.81363 | -84.52820 | 35035 ft | 589 kts | 63° |
| 2026-05-01 10:38 | 36.84254 | -84.43233 | 35041 ft | 589 kts | 62° |
| 2026-05-01 10:38 | 36.87130 | -84.33663 | 35033 ft | 589 kts | 63° |
| 2026-05-01 10:39 | 36.90006 | -84.24062 | 35022 ft | 591 kts | 63° |
| 2026-05-01 10:39 | 36.92892 | -84.14395 | 35018 ft | 592 kts | 63° |
| 2026-05-01 10:40 | 36.95744 | -84.04794 | 35017 ft | 587 kts | 63° |
| 2026-05-01 10:40 | 36.98615 | -83.95112 | 35030 ft | 592 kts | 63° |
| 2026-05-01 10:41 | 37.01463 | -83.85466 | 35038 ft | 590 kts | 63° |
| 2026-05-01 10:42 | 37.05720 | -83.70987 | 35037 ft | 589 kts | 63° |
| 2026-05-01 10:42 | 37.08558 | -83.61293 | 35040 ft | 592 kts | 62° |
| 2026-05-01 10:43 | 37.11391 | -83.51579 | 35047 ft | 590 kts | 63° |
| 2026-05-01 10:43 | 37.14206 | -83.41896 | 35049 ft | 590 kts | 63° |
| 2026-05-01 10:44 | 37.16997 | -83.32254 | 35021 ft | 587 kts | 63° |
| 2026-05-01 10:44 | 37.19803 | -83.22540 | 35021 ft | 593 kts | 63° |
| 2026-05-01 10:45 | 37.22591 | -83.12838 | 35020 ft | 587 kts | 63° |
| 2026-05-01 10:45 | 37.25366 | -83.03161 | 35025 ft | 593 kts | 63° |
| 2026-05-01 10:46 | 37.28146 | -82.93417 | 35025 ft | 590 kts | 63° |
| 2026-05-01 10:46 | 37.30896 | -82.83747 | 35027 ft | 588 kts | 63° |
| 2026-05-01 10:47 | 37.33665 | -82.73984 | 35028 ft | 591 kts | 63° |
| 2026-05-01 10:47 | 37.36401 | -82.64291 | 35034 ft | 590 kts | 63° |
| 2026-05-01 10:48 | 37.39125 | -82.54610 | 35042 ft | 589 kts | 63° |
| 2026-05-01 10:48 | 37.41860 | -82.44858 | 35043 ft | 592 kts | 64° |
| 2026-05-01 10:49 | 37.44583 | -82.35106 | 35044 ft | 589 kts | 63° |
| 2026-05-01 10:49 | 37.47305 | -82.25331 | 35010 ft | 594 kts | 64° |
| 2026-05-01 10:50 | 37.50015 | -82.15554 | 35014 ft | 590 kts | 65° |
| 2026-05-01 10:50 | 37.52706 | -82.05810 | 35022 ft | 591 kts | 64° |
| 2026-05-01 10:51 | 37.55407 | -81.96003 | 35030 ft | 593 kts | 64° |
| 2026-05-01 10:51 | 37.58089 | -81.86211 | 35031 ft | 589 kts | 64° |
| 2026-05-01 10:52 | 37.60762 | -81.76432 | 35029 ft | 593 kts | 65° |
| 2026-05-01 10:52 | 37.63450 | -81.66560 | 35032 ft | 592 kts | 65° |
| 2026-05-01 10:53 | 37.66105 | -81.56754 | 34946 ft | 586 kts | 64° |
| 2026-05-01 10:53 | 37.68773 | -81.46892 | 34962 ft | 596 kts | 64° |
| 2026-05-01 10:54 | 37.71422 | -81.37035 | 35035 ft | 587 kts | 64° |
| 2026-05-01 10:54 | 37.74071 | -81.27165 | 35015 ft | 595 kts | 65° |
| 2026-05-01 10:55 | 37.76704 | -81.17296 | 35006 ft | 591 kts | 64° |
| 2026-05-01 10:55 | 37.79261 | -81.07397 | 35013 ft | 592 kts | 67° |
| 2026-05-01 10:56 | 37.81607 | -80.97355 | 35021 ft | 597 kts | 68° |
| 2026-05-01 10:56 | 37.83950 | -80.87289 | 35024 ft | 594 kts | 67° |
| 2026-05-01 10:57 | 37.86281 | -80.77261 | 35028 ft | 593 kts | 67° |
| 2026-05-01 10:57 | 37.88621 | -80.67184 | 35030 ft | 596 kts | 68° |
| 2026-05-01 10:58 | 37.90940 | -80.57154 | 35041 ft | 595 kts | 67° |
| 2026-05-01 10:58 | 37.92113 | -80.52082 | 35148 ft | 602 kts | 67° |
| 2026-05-01 10:58 | 37.93277 | -80.47021 | 35744 ft | 598 kts | 66° |
| 2026-05-01 10:58 | 37.94425 | -80.42012 | 36737 ft | 588 kts | 67° |
| 2026-05-01 10:59 | 37.95563 | -80.37048 | 37035 ft | 590 kts | 68° |
| 2026-05-01 10:59 | 37.97847 | -80.27063 | 37005 ft | 586 kts | 68° |
| 2026-05-01 11:00 | 38.00101 | -80.17169 | 37006 ft | 588 kts | 68° |
| 2026-05-01 11:00 | 38.02360 | -80.07212 | 37000 ft | 586 kts | 68° |
| 2026-05-01 11:01 | 38.04585 | -79.97349 | 37002 ft | 581 kts | 68° |
| 2026-05-01 11:01 | 38.06813 | -79.87447 | 37012 ft | 586 kts | 69° |
| 2026-05-01 11:02 | 38.09037 | -79.77513 | 37007 ft | 584 kts | 68° |
| 2026-05-01 11:02 | 38.11257 | -79.67554 | 37022 ft | 585 kts | 68° |
| 2026-05-01 11:03 | 38.13462 | -79.57610 | 37027 ft | 583 kts | 69° |
| 2026-05-01 11:03 | 38.15661 | -79.47660 | 37032 ft | 585 kts | 68° |
| 2026-05-01 11:04 | 38.17840 | -79.37748 | 37035 ft | 580 kts | 69° |
| 2026-05-01 11:04 | 38.20006 | -79.27853 | 37006 ft | 579 kts | 69° |
| 2026-05-01 11:05 | 38.22171 | -79.17933 | 36995 ft | 584 kts | 69° |
| 2026-05-01 11:05 | 38.24331 | -79.07974 | 37015 ft | 580 kts | 69° |
| 2026-05-01 11:06 | 38.26465 | -78.98092 | 37031 ft | 577 kts | 70° |
| 2026-05-01 11:06 | 38.28602 | -78.88165 | 37033 ft | 582 kts | 70° |
| 2026-05-01 11:07 | 38.31771 | -78.73340 | 37045 ft | 577 kts | 69° |
| 2026-05-01 11:07 | 38.33867 | -78.63490 | 37043 ft | 578 kts | 69° |
| 2026-05-01 11:08 | 38.35964 | -78.53587 | 37039 ft | 579 kts | 69° |
| 2026-05-01 11:09 | 38.39071 | -78.38824 | 37053 ft | 576 kts | 69° |
| 2026-05-01 11:09 | 38.41147 | -78.28912 | 37025 ft | 578 kts | 70° |
| 2026-05-01 11:10 | 38.45158 | -78.14630 | 37031 ft | 567 kts | 59° |
| 2026-05-01 11:10 | 38.48306 | -78.05421 | 37036 ft | 565 kts | 60° |
| 2026-05-01 11:11 | 38.51444 | -77.96187 | 37041 ft | 566 kts | 60° |
| 2026-05-01 11:11 | 38.54546 | -77.86998 | 37043 ft | 563 kts | 60° |
| 2026-05-01 11:12 | 38.57664 | -77.77726 | 37046 ft | 566 kts | 60° |
| 2026-05-01 11:12 | 38.60737 | -77.68539 | 37053 ft | 562 kts | 60° |
| 2026-05-01 11:13 | 38.63821 | -77.59299 | 37040 ft | 566 kts | 60° |
| 2026-05-01 11:13 | 38.66883 | -77.50078 | 37039 ft | 560 kts | 60° |
| 2026-05-01 11:14 | 38.69944 | -77.40842 | 37041 ft | 565 kts | 60° |
| 2026-05-01 11:14 | 38.72978 | -77.31647 | 37018 ft | 560 kts | 61° |
| 2026-05-01 11:15 | 38.75976 | -77.22539 | 37026 ft | 563 kts | 61° |
| 2026-05-01 11:15 | 38.79011 | -77.13284 | 37033 ft | 561 kts | 61° |
| 2026-05-01 11:16 | 38.82042 | -77.04015 | 37019 ft | 563 kts | 62° |
| 2026-05-01 11:16 | 38.85051 | -76.94775 | 37041 ft | 559 kts | 61° |
| 2026-05-01 11:17 | 38.88050 | -76.85540 | 37029 ft | 559 kts | 62° |
| 2026-05-01 11:17 | 38.91041 | -76.76304 | 37036 ft | 561 kts | 62° |
| 2026-05-01 11:18 | 38.94014 | -76.67084 | 37037 ft | 555 kts | 61° |
| 2026-05-01 11:18 | 38.96970 | -76.57897 | 37036 ft | 560 kts | 62° |
| 2026-05-01 11:19 | 38.99935 | -76.48645 | 37057 ft | 556 kts | 62° |
| 2026-05-01 11:19 | 39.02881 | -76.39423 | 37045 ft | 558 kts | 62° |
| 2026-05-01 11:20 | 39.05822 | -76.30187 | 37031 ft | 556 kts | 63° |
| 2026-05-01 11:20 | 39.08743 | -76.20983 | 37016 ft | 557 kts | 63° |
| 2026-05-01 11:21 | 39.11678 | -76.11708 | 37027 ft | 559 kts | 63° |
| 2026-05-01 11:21 | 39.14592 | -76.02458 | 37032 ft | 553 kts | 63° |
| 2026-05-01 11:22 | 39.17483 | -75.93261 | 37013 ft | 555 kts | 63° |
| 2026-05-01 11:22 | 39.20782 | -75.84423 | 37026 ft | 545 kts | 53° |
| 2026-05-01 11:23 | 39.24749 | -75.76146 | 37123 ft | 545 kts | 52° |
| 2026-05-01 11:23 | 39.28724 | -75.67849 | 37031 ft | 541 kts | 52° |
| 2026-05-01 11:24 | 39.32681 | -75.59551 | 37029 ft | 541 kts | 52° |
| 2026-05-01 11:25 | 39.38580 | -75.47116 | 37018 ft | 542 kts | 53° |
| 2026-05-01 11:25 | 39.44428 | -75.34725 | 37038 ft | 538 kts | 53° |
| 2026-05-01 11:26 | 39.50290 | -75.22254 | 37006 ft | 542 kts | 53° |
| 2026-05-01 11:27 | 39.54188 | -75.13928 | 37009 ft | 537 kts | 53° |
| 2026-05-01 11:27 | 39.58056 | -75.05649 | 37005 ft | 540 kts | 54° |
| 2026-05-01 11:28 | 39.61947 | -74.97295 | 37014 ft | 537 kts | 54° |
| 2026-05-01 11:28 | 39.65797 | -74.89006 | 37011 ft | 533 kts | 54° |
| 2026-05-01 11:29 | 39.71531 | -74.76627 | 37001 ft | 535 kts | 54° |
| 2026-05-01 11:30 | 39.77261 | -74.64202 | 37006 ft | 532 kts | 54° |
| 2026-05-01 11:30 | 39.81058 | -74.55941 | 37002 ft | 530 kts | 54° |
| 2026-05-01 11:31 | 39.84840 | -74.47693 | 37002 ft | 531 kts | 54° |
| 2026-05-01 11:31 | 39.88626 | -74.39413 | 37010 ft | 531 kts | 54° |
| 2026-05-01 11:32 | 39.92335 | -74.31279 | 36990 ft | 528 kts | 56° |
| 2026-05-01 11:32 | 39.96074 | -74.23059 | 36994 ft | 529 kts | 56° |
| 2026-05-01 11:33 | 39.99818 | -74.14807 | 36993 ft | 528 kts | 56° |
| 2026-05-01 11:33 | 40.03547 | -74.06566 | 36995 ft | 528 kts | 56° |
| 2026-05-01 11:34 | 40.07261 | -73.98335 | 36990 ft | 528 kts | 56° |
| 2026-05-01 11:34 | 40.10987 | -73.90056 | 36984 ft | 527 kts | 56° |
| 2026-05-01 11:35 | 40.14723 | -73.81732 | 36988 ft | 528 kts | 56° |
| 2026-05-01 11:35 | 40.18431 | -73.73448 | 36982 ft | 528 kts | 56° |
| 2026-05-01 11:36 | 40.22142 | -73.65134 | 36985 ft | 526 kts | 56° |
| 2026-05-01 11:36 | 40.25827 | -73.56858 | 36982 ft | 527 kts | 56° |
| 2026-05-01 11:37 | 40.29516 | -73.48550 | 36977 ft | 526 kts | 56° |
| 2026-05-01 11:37 | 40.33191 | -73.40253 | 36975 ft | 527 kts | 57° |
| 2026-05-01 11:38 | 40.36863 | -73.31937 | 36964 ft | 526 kts | 57° |
| 2026-05-01 11:38 | 40.40526 | -73.23621 | 36966 ft | 526 kts | 57° |
| 2026-05-01 11:39 | 40.44181 | -73.15301 | 36961 ft | 527 kts | 57° |
| 2026-05-01 11:39 | 40.47838 | -73.06952 | 36955 ft | 526 kts | 58° |
| 2026-05-01 11:40 | 40.51468 | -72.98641 | 36956 ft | 526 kts | 58° |
| 2026-05-01 11:40 | 40.55079 | -72.90353 | 36954 ft | 526 kts | 58° |
| 2026-05-01 11:41 | 40.58718 | -72.81978 | 36949 ft | 525 kts | 58° |
| 2026-05-01 11:41 | 40.62335 | -72.73630 | 36953 ft | 524 kts | 58° |
| 2026-05-01 11:42 | 40.65937 | -72.65293 | 36953 ft | 525 kts | 58° |
| 2026-05-01 11:42 | 40.69214 | -72.56746 | 36952 ft | 526 kts | 69° |
| 2026-05-01 11:43 | 40.71536 | -72.47616 | 36952 ft | 528 kts | 71° |
| 2026-05-01 11:43 | 40.73786 | -72.38446 | 36945 ft | 526 kts | 71° |
| 2026-05-01 11:44 | 40.77126 | -72.24707 | 36928 ft | 526 kts | 72° |
| 2026-05-01 11:44 | 40.79338 | -72.15545 | 36941 ft | 525 kts | 72° |
| 2026-05-01 11:45 | 40.81553 | -72.06322 | 36934 ft | 526 kts | 72° |
| 2026-05-01 11:45 | 40.83749 | -71.97137 | 36932 ft | 525 kts | 72° |
| 2026-05-01 11:46 | 40.85926 | -71.87994 | 36931 ft | 523 kts | 72° |
| 2026-05-01 11:46 | 40.88099 | -71.78827 | 36923 ft | 524 kts | 72° |
| 2026-05-01 11:47 | 40.90265 | -71.69653 | 36922 ft | 522 kts | 72° |
| 2026-05-01 11:47 | 40.92412 | -71.60525 | 36924 ft | 523 kts | 72° |
| 2026-05-01 11:48 | 40.94558 | -71.51363 | 36921 ft | 522 kts | 72° |
| 2026-05-01 11:48 | 40.96693 | -71.42211 | 36923 ft | 520 kts | 72° |
| 2026-05-01 11:49 | 40.98820 | -71.33057 | 36916 ft | 521 kts | 73° |
| 2026-05-01 11:49 | 41.00935 | -71.23917 | 36907 ft | 520 kts | 73° |
| 2026-05-01 11:50 | 41.03037 | -71.14794 | 36906 ft | 520 kts | 73° |
| 2026-05-01 11:50 | 41.05133 | -71.05660 | 36906 ft | 519 kts | 73° |
| 2026-05-01 11:51 | 41.07220 | -70.96529 | 36911 ft | 518 kts | 73° |
| 2026-05-01 11:51 | 41.09292 | -70.87427 | 36908 ft | 517 kts | 73° |
| 2026-05-01 11:52 | 41.11363 | -70.78291 | 36897 ft | 517 kts | 73° |
| 2026-05-01 11:52 | 41.13425 | -70.69159 | 36898 ft | 516 kts | 73° |
| 2026-05-01 11:53 | 41.15473 | -70.60052 | 36895 ft | 515 kts | 73° |
| 2026-05-01 11:53 | 41.17510 | -70.50957 | 36905 ft | 517 kts | 73° |
| 2026-05-01 11:54 | 41.19548 | -70.41817 | 36895 ft | 515 kts | 73° |
| 2026-05-01 11:54 | 41.21569 | -70.32716 | 36890 ft | 515 kts | 74° |
| 2026-05-01 11:55 | 41.23583 | -70.23607 | 36892 ft | 514 kts | 74° |
| 2026-05-01 11:55 | 41.25590 | -70.14493 | 36885 ft | 513 kts | 74° |
| 2026-05-01 11:56 | 41.27604 | -70.05401 | 36881 ft | 514 kts | 72° |
| 2026-05-01 11:56 | 41.30761 | -69.96933 | 36886 ft | 511 kts | 58° |
| 2026-05-01 11:57 | 41.34535 | -69.88955 | 36885 ft | 511 kts | 57° |
| 2026-05-01 11:57 | 41.38293 | -69.80967 | 36882 ft | 511 kts | 58° |
| 2026-05-01 11:58 | 41.42036 | -69.72961 | 36879 ft | 510 kts | 58° |
| 2026-05-01 11:59 | 41.47635 | -69.60917 | 36877 ft | 508 kts | 58° |
| 2026-05-01 11:59 | 41.51349 | -69.52894 | 36879 ft | 510 kts | 58° |
| 2026-05-01 12:00 | 41.56923 | -69.40802 | 36876 ft | 510 kts | 58° |
| 2026-05-01 12:01 | 41.62474 | -69.28709 | 36859 ft | 510 kts | 59° |
| 2026-05-01 12:01 | 41.66160 | -69.20653 | 36858 ft | 509 kts | 59° |
| 2026-05-01 12:02 | 41.69835 | -69.12597 | 36856 ft | 508 kts | 59° |
| 2026-05-01 12:02 | 41.73502 | -69.04539 | 36856 ft | 508 kts | 59° |
| 2026-05-01 12:03 | 41.77180 | -68.96434 | 36863 ft | 509 kts | 59° |
| 2026-05-01 12:03 | 41.80848 | -68.88328 | 36874 ft | 511 kts | 59° |
| 2026-05-01 12:04 | 41.84515 | -68.80204 | 36869 ft | 510 kts | 59° |
| 2026-05-01 12:04 | 41.88166 | -68.72092 | 36871 ft | 510 kts | 59° |
| 2026-05-01 12:05 | 41.91809 | -68.63978 | 36869 ft | 509 kts | 59° |
| 2026-05-01 12:05 | 41.97267 | -68.51776 | 36871 ft | 510 kts | 60° |
| 2026-05-01 12:06 | 42.00902 | -68.43623 | 36874 ft | 510 kts | 60° |
| 2026-05-01 12:06 | 42.04526 | -68.35472 | 36874 ft | 508 kts | 60° |
| 2026-05-01 12:07 | 42.08135 | -68.27335 | 36865 ft | 507 kts | 60° |
| 2026-05-01 12:07 | 42.11749 | -68.19163 | 36851 ft | 507 kts | 61° |
| 2026-05-01 12:08 | 42.15347 | -68.11003 | 36838 ft | 508 kts | 60° |
| 2026-05-01 12:08 | 42.18937 | -68.02841 | 36835 ft | 507 kts | 60° |
| 2026-05-01 12:09 | 42.22502 | -67.94713 | 36839 ft | 505 kts | 61° |
| 2026-05-01 12:09 | 42.26068 | -67.86559 | 36839 ft | 506 kts | 61° |
| 2026-05-01 12:10 | 42.31413 | -67.74296 | 36825 ft | 506 kts | 61° |
| 2026-05-01 12:11 | 42.36729 | -67.62051 | 36831 ft | 505 kts | 61° |
| 2026-05-01 12:11 | 42.40274 | -67.53855 | 36828 ft | 506 kts | 61° |
| 2026-05-01 12:12 | 42.43809 | -67.45659 | 36836 ft | 506 kts | 61° |
| 2026-05-01 12:12 | 42.47345 | -67.37441 | 36830 ft | 506 kts | 62° |
| 2026-05-01 12:13 | 42.50870 | -67.29224 | 36822 ft | 505 kts | 63° |
| 2026-05-01 12:13 | 42.54384 | -67.21010 | 36818 ft | 506 kts | 63° |
| 2026-05-01 12:14 | 42.57888 | -67.12796 | 36819 ft | 503 kts | 63° |
| 2026-05-01 12:14 | 42.61382 | -67.04582 | 36821 ft | 506 kts | 63° |
| 2026-05-01 12:15 | 42.64619 | -66.96216 | 36827 ft | 500 kts | 68° |
| 2026-05-01 12:15 | 42.67569 | -66.87634 | 36817 ft | 504 kts | 68° |
| 2026-05-01 12:16 | 42.70496 | -66.79084 | 36816 ft | 498 kts | 69° |
| 2026-05-01 12:16 | 42.73417 | -66.70514 | 36813 ft | 505 kts | 69° |
| 2026-05-01 12:17 | 42.76343 | -66.61906 | 36817 ft | 500 kts | 69° |
| 2026-05-01 12:17 | 42.79236 | -66.53370 | 36830 ft | 499 kts | 69° |
| 2026-05-01 12:18 | 42.82128 | -66.44807 | 36824 ft | 500 kts | 69° |
| 2026-05-01 12:18 | 42.85013 | -66.36238 | 36825 ft | 498 kts | 69° |
| 2026-05-01 12:19 | 42.87876 | -66.27708 | 36817 ft | 498 kts | 70° |
| 2026-05-01 12:19 | 42.90734 | -66.19166 | 36796 ft | 496 kts | 70° |
| 2026-05-01 12:20 | 42.93588 | -66.10606 | 36797 ft | 499 kts | 70° |
| 2026-05-01 12:20 | 42.96436 | -66.02042 | 36792 ft | 494 kts | 71° |
| 2026-05-01 12:21 | 42.99247 | -65.93560 | 36793 ft | 494 kts | 70° |
| 2026-05-01 12:21 | 43.02069 | -65.85016 | 36802 ft | 496 kts | 71° |
| 2026-05-01 12:22 | 43.04874 | -65.76502 | 36548 ft | 493 kts | 71° |
| 2026-05-01 12:22 | 43.06273 | -65.72242 | 36768 ft | 493 kts | 71° |
| 2026-05-01 12:22 | 43.07678 | -65.67954 | 36793 ft | 499 kts | 71° |
| 2026-05-01 12:23 | 43.10505 | -65.59314 | 36780 ft | 497 kts | 71° |
| 2026-05-01 12:23 | 43.13307 | -65.50730 | 36803 ft | 494 kts | 71° |
| 2026-05-01 12:24 | 43.16101 | -65.42132 | 36798 ft | 497 kts | 71° |
| 2026-05-01 12:24 | 43.18895 | -65.33514 | 36795 ft | 494 kts | 72° |
| 2026-05-01 12:25 | 43.23052 | -65.20635 | 36792 ft | 493 kts | 72° |
| 2026-05-01 12:26 | 43.25805 | -65.12073 | 36765 ft | 492 kts | 72° |
| 2026-05-01 12:26 | 43.29928 | -64.99191 | 36775 ft | 496 kts | 72° |
| 2026-05-01 12:27 | 43.34037 | -64.86300 | 36767 ft | 492 kts | 72° |
| 2026-05-01 12:28 | 43.38137 | -64.73369 | 36780 ft | 492 kts | 72° |
| 2026-05-01 12:29 | 43.42207 | -64.60470 | 36772 ft | 491 kts | 72° |
| 2026-05-01 12:29 | 43.46251 | -64.47588 | 36775 ft | 491 kts | 72° |
| 2026-05-01 12:30 | 43.50290 | -64.34660 | 36763 ft | 491 kts | 72° |
| 2026-05-01 12:31 | 43.52963 | -64.26071 | 36772 ft | 490 kts | 73° |
| 2026-05-01 12:31 | 43.55646 | -64.17416 | 36773 ft | 494 kts | 72° |
| 2026-05-01 12:32 | 43.58310 | -64.08802 | 36777 ft | 488 kts | 73° |
| 2026-05-01 12:32 | 43.62283 | -63.95894 | 36768 ft | 490 kts | 72° |
| 2026-05-01 12:33 | 43.64922 | -63.87287 | 36766 ft | 489 kts | 72° |
| 2026-05-01 12:33 | 43.67563 | -63.78639 | 36768 ft | 492 kts | 72° |
| 2026-05-01 12:34 | 43.70196 | -63.69995 | 36769 ft | 488 kts | 72° |
| 2026-05-01 12:34 | 43.72828 | -63.61317 | 36773 ft | 493 kts | 72° |
| 2026-05-01 12:35 | 43.75455 | -63.52637 | 36778 ft | 489 kts | 72° |
| 2026-05-01 12:35 | 43.78070 | -63.43960 | 36784 ft | 493 kts | 72° |
| 2026-05-01 12:36 | 43.80689 | -63.35241 | 36779 ft | 490 kts | 72° |
| 2026-05-01 12:36 | 43.83284 | -63.26577 | 36786 ft | 489 kts | 72° |
| 2026-05-01 12:37 | 43.85890 | -63.17839 | 36799 ft | 493 kts | 72° |
| 2026-05-01 12:37 | 43.88483 | -63.09119 | 36804 ft | 491 kts | 72° |
| 2026-05-01 12:38 | 43.91075 | -63.00374 | 36804 ft | 491 kts | 72° |
| 2026-05-01 12:38 | 43.93658 | -62.91628 | 36796 ft | 490 kts | 72° |
| 2026-05-01 12:39 | 43.96230 | -62.82885 | 36797 ft | 492 kts | 72° |
| 2026-05-01 12:39 | 43.98802 | -62.74115 | 36804 ft | 492 kts | 71° |
| 2026-05-01 12:40 | 44.01369 | -62.65335 | 36815 ft | 492 kts | 72° |
| 2026-05-01 12:40 | 44.03926 | -62.56552 | 36821 ft | 494 kts | 71° |
| 2026-05-01 12:41 | 44.06489 | -62.47722 | 36834 ft | 495 kts | 71° |
| 2026-05-01 12:41 | 44.09055 | -62.38849 | 36829 ft | 497 kts | 71° |
| 2026-05-01 12:42 | 44.11616 | -62.29964 | 36826 ft | 495 kts | 72° |
| 2026-05-01 12:42 | 44.14170 | -62.21068 | 36839 ft | 498 kts | 72° |
| 2026-05-01 12:43 | 44.16725 | -62.12138 | 36840 ft | 497 kts | 72° |
| 2026-05-01 12:43 | 44.19265 | -62.03231 | 36840 ft | 497 kts | 72° |
| 2026-05-01 12:44 | 44.21813 | -61.94259 | 36860 ft | 499 kts | 72° |
| 2026-05-01 12:45 | 44.26874 | -61.76348 | 36875 ft | 500 kts | 72° |
| 2026-05-01 12:45 | 44.29399 | -61.67362 | 36885 ft | 497 kts | 72° |
| 2026-05-01 12:46 | 44.31908 | -61.58400 | 36898 ft | 498 kts | 72° |
| 2026-05-01 12:46 | 44.34419 | -61.49400 | 36891 ft | 498 kts | 71° |
| 2026-05-01 12:47 | 44.36913 | -61.40425 | 36902 ft | 497 kts | 71° |
| 2026-05-01 12:47 | 44.39408 | -61.31414 | 36892 ft | 498 kts | 72° |
| 2026-05-01 12:48 | 44.41890 | -61.22417 | 36913 ft | 498 kts | 72° |
| 2026-05-01 12:48 | 44.44374 | -61.13382 | 36918 ft | 499 kts | 72° |
| 2026-05-01 12:49 | 44.46847 | -61.04350 | 36937 ft | 499 kts | 72° |
| 2026-05-01 12:49 | 44.49306 | -60.95340 | 36947 ft | 497 kts | 72° |
| 2026-05-01 12:50 | 44.51764 | -60.86293 | 36952 ft | 498 kts | 72° |
| 2026-05-01 12:50 | 44.54208 | -60.77272 | 36949 ft | 496 kts | 72° |
| 2026-05-01 12:51 | 44.56652 | -60.68210 | 36959 ft | 499 kts | 71° |
| 2026-05-01 12:52 | 44.60300 | -60.54623 | 36970 ft | 497 kts | 71° |
| 2026-05-01 12:52 | 44.63932 | -60.41023 | 36980 ft | 497 kts | 71° |
| 2026-05-01 12:53 | 44.67536 | -60.27446 | 36979 ft | 498 kts | 72° |
| 2026-05-01 12:54 | 44.69935 | -60.18366 | 36988 ft | 496 kts | 71° |
| 2026-05-01 12:54 | 44.73513 | -60.04759 | 36998 ft | 497 kts | 71° |
| 2026-05-01 12:55 | 44.77075 | -59.91132 | 37005 ft | 496 kts | 71° |
| 2026-05-01 12:56 | 44.79436 | -59.82058 | 37006 ft | 495 kts | 71° |
| 2026-05-01 12:56 | 44.81791 | -59.72972 | 37014 ft | 496 kts | 71° |
| 2026-05-01 12:57 | 44.84139 | -59.63877 | 37018 ft | 497 kts | 71° |
| 2026-05-01 12:57 | 44.87644 | -59.50235 | 37023 ft | 495 kts | 70° |
| 2026-05-01 12:58 | 44.89970 | -59.41137 | 37031 ft | 496 kts | 70° |
| 2026-05-01 12:59 | 44.93459 | -59.27422 | 37029 ft | 494 kts | 71° |
| 2026-05-01 12:59 | 44.96913 | -59.13765 | 37039 ft | 494 kts | 71° |
| 2026-05-01 13:00 | 45.00348 | -59.00105 | 37044 ft | 490 kts | 71° |
| 2026-05-01 13:01 | 45.03763 | -58.86437 | 37054 ft | 493 kts | 70° |
| 2026-05-01 13:02 | 45.07156 | -58.72779 | 37064 ft | 494 kts | 70° |
| 2026-05-01 13:07 | 45.31568 | -57.72006 | 37097 ft | 491 kts | 71° |
| 2026-05-01 13:08 | 45.33735 | -57.62833 | 37102 ft | 492 kts | 71° |
| 2026-05-01 13:08 | 45.35890 | -57.53678 | 37116 ft | 488 kts | 71° |
| 2026-05-01 13:09 | 45.38040 | -57.44502 | 37109 ft | 489 kts | 71° |
| 2026-05-01 13:09 | 45.40172 | -57.35368 | 37123 ft | 490 kts | 71° |
| 2026-05-01 13:10 | 45.42312 | -57.26161 | 37114 ft | 488 kts | 71° |
| 2026-05-01 13:10 | 45.44432 | -57.17003 | 37125 ft | 488 kts | 71° |
| 2026-05-01 13:11 | 45.46543 | -57.07840 | 37123 ft | 487 kts | 71° |
| 2026-05-01 13:11 | 45.48637 | -56.98717 | 37145 ft | 487 kts | 71° |
| 2026-05-01 13:12 | 45.50732 | -56.89549 | 37141 ft | 487 kts | 72° |
| 2026-05-01 13:12 | 45.52812 | -56.80408 | 37133 ft | 486 kts | 71° |
| 2026-05-01 13:13 | 45.54882 | -56.71277 | 37138 ft | 486 kts | 72° |
| 2026-05-01 13:13 | 45.56942 | -56.62144 | 37149 ft | 485 kts | 72° |
| 2026-05-01 13:14 | 45.59003 | -56.52972 | 37150 ft | 485 kts | 72° |
| 2026-05-01 13:14 | 45.61053 | -56.43806 | 37155 ft | 484 kts | 72° |
| 2026-05-01 13:15 | 45.63092 | -56.34655 | 37155 ft | 483 kts | 72° |
| 2026-05-01 13:15 | 45.65115 | -56.25535 | 37159 ft | 483 kts | 72° |
| 2026-05-01 13:16 | 45.67137 | -56.16377 | 37160 ft | 483 kts | 72° |
| 2026-05-01 13:16 | 45.69144 | -56.07246 | 37164 ft | 482 kts | 72° |
| 2026-05-01 13:17 | 45.73128 | -55.89010 | 37184 ft | 480 kts | 72° |
| 2026-05-01 13:18 | 45.76090 | -55.75348 | 37189 ft | 480 kts | 72° |
| 2026-05-01 13:18 | 45.78050 | -55.66254 | 37192 ft | 479 kts | 72° |
| 2026-05-01 13:19 | 45.80000 | -55.57172 | 37196 ft | 479 kts | 72° |
| 2026-05-01 13:20 | 45.82921 | -55.43489 | 37204 ft | 478 kts | 72° |
| 2026-05-01 13:20 | 45.84855 | -55.34378 | 37204 ft | 477 kts | 73° |
| 2026-05-01 13:21 | 45.87737 | -55.20728 | 37202 ft | 477 kts | 73° |
| 2026-05-01 13:21 | 45.89648 | -55.11623 | 37208 ft | 477 kts | 73° |
| 2026-05-01 13:22 | 45.91546 | -55.02542 | 37213 ft | 477 kts | 73° |
| 2026-05-01 13:22 | 45.93438 | -54.93450 | 37216 ft | 475 kts | 73° |
| 2026-05-01 13:23 | 45.95314 | -54.84395 | 37207 ft | 474 kts | 73° |
| 2026-05-01 13:23 | 45.97185 | -54.75319 | 37215 ft | 475 kts | 73° |
| 2026-05-01 13:24 | 45.99050 | -54.66234 | 37218 ft | 475 kts | 73° |
| 2026-05-01 13:25 | 46.01835 | -54.52593 | 37223 ft | 476 kts | 73° |
| 2026-05-01 13:25 | 46.03682 | -54.43491 | 37222 ft | 475 kts | 73° |
| 2026-05-01 13:26 | 46.05524 | -54.34375 | 37226 ft | 475 kts | 73° |
| 2026-05-01 13:26 | 46.07356 | -54.25262 | 37228 ft | 474 kts | 73° |
| 2026-05-01 13:27 | 46.09175 | -54.16178 | 37221 ft | 474 kts | 73° |
| 2026-05-01 13:27 | 46.11892 | -54.02527 | 37242 ft | 472 kts | 74° |
| 2026-05-01 13:28 | 46.14580 | -53.88921 | 37236 ft | 472 kts | 73° |
| 2026-05-01 13:29 | 46.18140 | -53.70764 | 37243 ft | 472 kts | 73° |
| 2026-05-01 13:31 | 46.23407 | -53.43574 | 37243 ft | 470 kts | 73° |
| 2026-05-01 13:32 | 46.27746 | -53.20886 | 37247 ft | 469 kts | 74° |
| 2026-05-01 13:33 | 46.32022 | -52.98253 | 37249 ft | 467 kts | 74° |
| 2026-05-01 13:34 | 46.35409 | -52.80134 | 37245 ft | 466 kts | 74° |
| 2026-05-01 13:35 | 46.37924 | -52.66559 | 37248 ft | 467 kts | 74° |
| 2026-05-01 13:36 | 46.40427 | -52.52955 | 37248 ft | 467 kts | 74° |
| 2026-05-01 13:36 | 46.42914 | -52.39339 | 37251 ft | 466 kts | 73° |
| 2026-05-01 13:37 | 46.44557 | -52.30282 | 37249 ft | 466 kts | 74° |
| 2026-05-01 13:37 | 46.46193 | -52.21224 | 37247 ft | 466 kts | 74° |
| 2026-05-01 13:38 | 46.48635 | -52.07616 | 37257 ft | 464 kts | 74° |
| 2026-05-01 13:39 | 46.50252 | -51.98575 | 37257 ft | 463 kts | 72° |
| 2026-05-01 13:39 | 46.52477 | -51.89863 | 37252 ft | 462 kts | 67° |
| 2026-05-01 13:40 | 46.54797 | -51.81213 | 37253 ft | 461 kts | 67° |
| 2026-05-01 13:40 | 46.57080 | -51.72538 | 37255 ft | 461 kts | 68° |
| 2026-05-01 13:41 | 46.59339 | -51.63845 | 37261 ft | 460 kts | 68° |
| 2026-05-01 13:41 | 46.61580 | -51.55152 | 37262 ft | 461 kts | 68° |
| 2026-05-01 13:42 | 46.63819 | -51.46413 | 37252 ft | 461 kts | 68° |
| 2026-05-01 13:42 | 46.66041 | -51.37699 | 37264 ft | 460 kts | 68° |
| 2026-05-01 13:43 | 46.68247 | -51.29005 | 37273 ft | 459 kts | 68° |
| 2026-05-01 13:43 | 46.70444 | -51.20315 | 37275 ft | 458 kts | 69° |
| 2026-05-01 13:44 | 46.72631 | -51.11630 | 37281 ft | 458 kts | 68° |
| 2026-05-01 13:44 | 46.74805 | -51.02960 | 37285 ft | 457 kts | 69° |
| 2026-05-01 13:45 | 46.76981 | -50.94251 | 37282 ft | 457 kts | 69° |
| 2026-05-01 13:45 | 46.79143 | -50.85561 | 37288 ft | 456 kts | 69° |
| 2026-05-01 13:46 | 46.81296 | -50.76880 | 37280 ft | 456 kts | 69° |
| 2026-05-01 13:46 | 46.83435 | -50.68215 | 37284 ft | 455 kts | 69° |
| 2026-05-01 13:47 | 46.85564 | -50.59561 | 37288 ft | 454 kts | 69° |
| 2026-05-01 13:47 | 46.87687 | -50.50900 | 37279 ft | 455 kts | 69° |
| 2026-05-01 13:48 | 46.89811 | -50.42200 | 37285 ft | 455 kts | 69° |
| 2026-05-01 13:48 | 46.91926 | -50.33499 | 37281 ft | 454 kts | 70° |
| 2026-05-01 13:49 | 46.94032 | -50.24805 | 37275 ft | 454 kts | 70° |
| 2026-05-01 13:49 | 46.96130 | -50.16110 | 37274 ft | 454 kts | 70° |
| 2026-05-01 13:50 | 46.98220 | -50.07411 | 37268 ft | 454 kts | 70° |
| 2026-05-01 13:50 | 46.99916 | -49.98491 | 37272 ft | 456 kts | 82° |
| 2026-05-01 13:51 | 47.00418 | -49.89281 | 37271 ft | 454 kts | 85° |
| 2026-05-01 13:51 | 47.00827 | -49.80074 | 37277 ft | 455 kts | 85° |
| 2026-05-01 13:52 | 47.01218 | -49.70896 | 37280 ft | 453 kts | 85° |
| 2026-05-01 13:52 | 47.01596 | -49.61713 | 37277 ft | 453 kts | 85° |
| 2026-05-01 13:53 | 47.01966 | -49.52494 | 37275 ft | 454 kts | 85° |
| 2026-05-01 13:53 | 47.02503 | -49.38730 | 37285 ft | 452 kts | 85° |
| 2026-05-01 13:54 | 47.02851 | -49.29549 | 37293 ft | 452 kts | 86° |
| 2026-05-01 13:54 | 47.03191 | -49.20388 | 37290 ft | 453 kts | 86° |
| 2026-05-01 13:55 | 47.03524 | -49.11188 | 37294 ft | 453 kts | 86° |
| 2026-05-01 13:55 | 47.03851 | -49.01975 | 37296 ft | 452 kts | 86° |
| 2026-05-01 13:56 | 47.04169 | -48.92806 | 37282 ft | 450 kts | 86° |
| 2026-05-01 13:56 | 47.04478 | -48.83662 | 37295 ft | 450 kts | 86° |
| 2026-05-01 13:57 | 47.04780 | -48.74531 | 37300 ft | 451 kts | 86° |
| 2026-05-01 13:57 | 47.05075 | -48.65378 | 37296 ft | 450 kts | 86° |
| 2026-05-01 13:58 | 47.05362 | -48.56255 | 37295 ft | 450 kts | 87° |
| 2026-05-01 13:58 | 47.05642 | -48.47122 | 37294 ft | 449 kts | 87° |
| 2026-05-01 13:59 | 47.05915 | -48.37975 | 37301 ft | 449 kts | 87° |
| 2026-05-01 13:59 | 47.06181 | -48.28816 | 37304 ft | 449 kts | 88° |
| 2026-05-01 14:00 | 47.06439 | -48.19686 | 37303 ft | 450 kts | 88° |
| 2026-05-01 14:00 | 47.06691 | -48.10514 | 37299 ft | 449 kts | 88° |
| 2026-05-01 14:01 | 47.06934 | -48.01404 | 37297 ft | 448 kts | 88° |
| 2026-05-01 14:01 | 47.07170 | -47.92285 | 37299 ft | 448 kts | 88° |
| 2026-05-01 14:02 | 47.07398 | -47.83182 | 37302 ft | 448 kts | 88° |
| 2026-05-01 14:02 | 47.07619 | -47.74078 | 37303 ft | 447 kts | 88° |
| 2026-05-01 14:03 | 47.07833 | -47.64937 | 37295 ft | 449 kts | 88° |
| 2026-05-01 14:03 | 47.08040 | -47.55833 | 37296 ft | 447 kts | 88° |
| 2026-05-01 14:04 | 47.08238 | -47.46761 | 37298 ft | 446 kts | 88° |
| 2026-05-01 14:04 | 47.08431 | -47.37610 | 37304 ft | 448 kts | 88° |
| 2026-05-01 14:05 | 47.08617 | -47.28465 | 37303 ft | 447 kts | 89° |
| 2026-05-01 14:05 | 47.08794 | -47.19384 | 37317 ft | 445 kts | 89° |
| 2026-05-01 14:06 | 47.08964 | -47.10275 | 37312 ft | 446 kts | 89° |
| 2026-05-01 14:06 | 47.09127 | -47.01198 | 37324 ft | 446 kts | 89° |
| 2026-05-01 14:07 | 47.09283 | -46.92110 | 37323 ft | 447 kts | 89° |
| 2026-05-01 14:08 | 47.09503 | -46.78437 | 37320 ft | 446 kts | 89° |
| 2026-05-01 14:08 | 47.09641 | -46.69349 | 37313 ft | 446 kts | 89° |
| 2026-05-01 14:09 | 47.09771 | -46.60260 | 37324 ft | 445 kts | 89° |
| 2026-05-01 14:09 | 47.09894 | -46.51196 | 37316 ft | 445 kts | 89° |
| 2026-05-01 14:10 | 47.10010 | -46.42122 | 37309 ft | 445 kts | 89° |
| 2026-05-01 14:10 | 47.10119 | -46.33037 | 37312 ft | 445 kts | 90° |
| 2026-05-01 14:11 | 47.10220 | -46.23973 | 37320 ft | 443 kts | 90° |
| 2026-05-01 14:11 | 47.10359 | -46.10355 | 37320 ft | 445 kts | 90° |
| 2026-05-01 14:12 | 47.10442 | -46.01298 | 37320 ft | 444 kts | 90° |
| 2026-05-01 14:12 | 47.10518 | -45.92280 | 37320 ft | 444 kts | 90° |
| 2026-05-01 14:13 | 47.10576 | -45.84762 | 37314 ft | 443 kts | 90° |
| 2026-05-01 14:13 | 47.10649 | -45.74266 | 37313 ft | 442 kts | 90° |
| 2026-05-01 14:14 | 47.10704 | -45.65261 | 37303 ft | 443 kts | 90° |
| 2026-05-01 14:14 | 47.10751 | -45.56249 | 37309 ft | 443 kts | 90° |
| 2026-05-01 14:15 | 47.10792 | -45.47211 | 37309 ft | 445 kts | 90° |
| 2026-05-01 14:15 | 47.10826 | -45.38151 | 37306 ft | 443 kts | 90° |
| 2026-05-01 14:16 | 47.10852 | -45.29123 | 37319 ft | 443 kts | 91° |
| 2026-05-01 14:16 | 47.10871 | -45.20107 | 37319 ft | 443 kts | 91° |
| 2026-05-01 14:17 | 47.10884 | -45.11107 | 37316 ft | 443 kts | 91° |
| 2026-05-01 14:17 | 47.10889 | -45.02072 | 37327 ft | 443 kts | 91° |
| 2026-05-01 14:18 | 47.10887 | -44.93048 | 37330 ft | 444 kts | 91° |
| 2026-05-01 14:18 | 47.10880 | -44.85505 | 37331 ft | 443 kts | 91° |
| 2026-05-01 14:19 | 47.10862 | -44.74992 | 37325 ft | 443 kts | 91° |
| 2026-05-01 14:19 | 47.10839 | -44.65992 | 37321 ft | 442 kts | 91° |
| 2026-05-01 14:20 | 47.10791 | -44.52480 | 37325 ft | 442 kts | 91° |
| 2026-05-01 14:21 | 47.10750 | -44.43482 | 37321 ft | 442 kts | 91° |
| 2026-05-01 14:21 | 47.10702 | -44.34471 | 37308 ft | 441 kts | 92° |
| 2026-05-01 14:22 | 47.10617 | -44.20970 | 37321 ft | 442 kts | 92° |
| 2026-05-01 14:22 | 47.10552 | -44.11995 | 37320 ft | 441 kts | 92° |
| 2026-05-01 14:23 | 47.10479 | -44.02971 | 37320 ft | 442 kts | 92° |
| 2026-05-01 14:23 | 47.10400 | -43.94004 | 37322 ft | 441 kts | 92° |
| 2026-05-01 14:24 | 47.10314 | -43.85038 | 37333 ft | 440 kts | 92° |
| 2026-05-01 14:24 | 47.10221 | -43.76072 | 37305 ft | 441 kts | 92° |
| 2026-05-01 14:25 | 47.10120 | -43.67081 | 37320 ft | 441 kts | 92° |
| 2026-05-01 14:25 | 47.10013 | -43.58118 | 37324 ft | 441 kts | 92° |
| 2026-05-01 14:26 | 47.09839 | -43.44685 | 37326 ft | 440 kts | 92° |
| 2026-05-01 14:27 | 47.09714 | -43.35716 | 37309 ft | 440 kts | 92° |
| 2026-05-01 14:27 | 47.09582 | -43.26740 | 37347 ft | 441 kts | 93° |
| 2026-05-01 14:28 | 47.09372 | -43.13294 | 37337 ft | 441 kts | 93° |
| 2026-05-01 14:28 | 47.09222 | -43.04302 | 37334 ft | 440 kts | 93° |
| 2026-05-01 14:29 | 47.09066 | -42.95368 | 37334 ft | 440 kts | 93° |
| 2026-05-01 14:30 | 47.08733 | -42.77444 | 37346 ft | 439 kts | 93° |
| 2026-05-01 14:31 | 47.08465 | -42.64010 | 37347 ft | 440 kts | 93° |
| 2026-05-01 14:31 | 47.08277 | -42.55053 | 37332 ft | 440 kts | 93° |
| 2026-05-01 14:32 | 47.08083 | -42.46106 | 37333 ft | 439 kts | 93° |
| 2026-05-01 14:32 | 47.07882 | -42.37163 | 37315 ft | 439 kts | 93° |
| 2026-05-01 14:33 | 47.07673 | -42.28182 | 37325 ft | 439 kts | 94° |
| 2026-05-01 14:33 | 47.07458 | -42.19275 | 37310 ft | 439 kts | 94° |
| 2026-05-01 14:34 | 47.07235 | -42.10306 | 37317 ft | 440 kts | 94° |
| 2026-05-01 14:34 | 47.07006 | -42.01345 | 37319 ft | 439 kts | 94° |
| 2026-05-01 14:35 | 47.06771 | -41.92444 | 37325 ft | 439 kts | 94° |
| 2026-05-01 14:35 | 47.06529 | -41.83544 | 37315 ft | 438 kts | 94° |
| 2026-05-01 14:36 | 47.06279 | -41.74611 | 37314 ft | 437 kts | 94° |
| 2026-05-01 14:36 | 47.06023 | -41.65724 | 37303 ft | 439 kts | 94° |
| 2026-05-01 14:37 | 47.05761 | -41.56824 | 37319 ft | 439 kts | 94° |
| 2026-05-01 14:37 | 47.05491 | -41.47908 | 37315 ft | 438 kts | 94° |
| 2026-05-01 14:38 | 47.05214 | -41.39000 | 37313 ft | 438 kts | 94° |
| 2026-05-01 14:38 | 47.04930 | -41.30099 | 37329 ft | 438 kts | 95° |
| 2026-05-01 14:39 | 47.04641 | -41.21211 | 37332 ft | 437 kts | 95° |
| 2026-05-01 14:39 | 47.04343 | -41.12314 | 37352 ft | 437 kts | 95° |
| 2026-05-01 14:40 | 47.04038 | -41.03401 | 37330 ft | 438 kts | 95° |
| 2026-05-01 14:40 | 47.03727 | -40.94507 | 37345 ft | 438 kts | 95° |
| 2026-05-01 14:41 | 47.03410 | -40.85612 | 37343 ft | 438 kts | 95° |
| 2026-05-01 14:41 | 47.03085 | -40.76723 | 37352 ft | 438 kts | 95° |
| 2026-05-01 14:42 | 47.02754 | -40.67849 | 37347 ft | 435 kts | 95° |
| 2026-05-01 14:42 | 47.02416 | -40.58985 | 37343 ft | 438 kts | 95° |
| 2026-05-01 14:43 | 47.02070 | -40.50082 | 37352 ft | 439 kts | 95° |
| 2026-05-01 14:43 | 47.01718 | -40.41201 | 37341 ft | 437 kts | 95° |
| 2026-05-01 14:44 | 47.01359 | -40.32311 | 37348 ft | 437 kts | 96° |
| 2026-05-01 14:44 | 47.00808 | -40.19003 | 37341 ft | 436 kts | 96° |
| 2026-05-01 14:45 | 47.00242 | -40.05699 | 37343 ft | 437 kts | 96° |
| 2026-05-01 14:46 | 46.99922 | -39.96807 | 37338 ft | 438 kts | 91° |
| 2026-05-01 14:46 | 47.00601 | -39.83395 | 37336 ft | 440 kts | 89° |
| 2026-05-01 14:47 | 47.01026 | -39.74473 | 37343 ft | 439 kts | 89° |
| 2026-05-01 14:48 | 47.01606 | -39.61119 | 37345 ft | 439 kts | 89° |
| 2026-05-01 14:48 | 47.02149 | -39.47722 | 37339 ft | 439 kts | 89° |
| 2026-05-01 14:49 | 47.02836 | -39.29929 | 37338 ft | 439 kts | 90° |
| 2026-05-01 14:50 | 47.03491 | -39.12107 | 37340 ft | 439 kts | 90° |
| 2026-05-01 14:51 | 47.03965 | -38.98718 | 37346 ft | 439 kts | 90° |
| 2026-05-01 14:52 | 47.04422 | -38.85348 | 37337 ft | 438 kts | 90° |
| 2026-05-01 14:53 | 47.04863 | -38.71970 | 37340 ft | 440 kts | 90° |
| 2026-05-01 14:53 | 47.05149 | -38.63059 | 37345 ft | 439 kts | 90° |
| 2026-05-01 14:54 | 47.05428 | -38.54131 | 37337 ft | 440 kts | 90° |
| 2026-05-01 14:54 | 47.05700 | -38.45206 | 37346 ft | 440 kts | 90° |
| 2026-05-01 14:55 | 47.05965 | -38.36264 | 37337 ft | 441 kts | 90° |
| 2026-05-01 14:55 | 47.06224 | -38.27320 | 37359 ft | 440 kts | 90° |
| 2026-05-01 14:56 | 47.06476 | -38.18375 | 37359 ft | 440 kts | 90° |
| 2026-05-01 14:56 | 47.06720 | -38.09439 | 37360 ft | 440 kts | 90° |
| 2026-05-01 14:57 | 47.06959 | -38.00455 | 37360 ft | 441 kts | 90° |
| 2026-05-01 14:57 | 47.07303 | -37.86981 | 37361 ft | 442 kts | 90° |
| 2026-05-01 14:58 | 47.07524 | -37.78006 | 37351 ft | 441 kts | 90° |
| 2026-05-01 14:58 | 47.07738 | -37.69033 | 37353 ft | 441 kts | 90° |
| 2026-05-01 14:59 | 47.07945 | -37.60050 | 37355 ft | 441 kts | 90° |
| 2026-05-01 14:59 | 47.08145 | -37.51071 | 37346 ft | 441 kts | 90° |
| 2026-05-01 15:00 | 47.08433 | -37.37550 | 37353 ft | 442 kts | 90° |
| 2026-05-01 15:01 | 47.08615 | -37.28560 | 37358 ft | 442 kts | 91° |
| 2026-05-01 15:01 | 47.08791 | -37.19540 | 37357 ft | 442 kts | 91° |
| 2026-05-01 15:02 | 47.08960 | -37.10535 | 37358 ft | 441 kts | 91° |
| 2026-05-01 15:02 | 47.09121 | -37.01537 | 37369 ft | 444 kts | 91° |
| 2026-05-01 15:03 | 47.09276 | -36.92511 | 37376 ft | 444 kts | 91° |
| 2026-05-01 15:03 | 47.09424 | -36.83477 | 37376 ft | 443 kts | 91° |
| 2026-05-01 15:04 | 47.09564 | -36.74456 | 37378 ft | 443 kts | 91° |
| 2026-05-01 15:04 | 47.09698 | -36.65450 | 37376 ft | 443 kts | 91° |
| 2026-05-01 15:05 | 47.09824 | -36.56443 | 37376 ft | 443 kts | 91° |
| 2026-05-01 15:05 | 47.09943 | -36.47446 | 37377 ft | 442 kts | 91° |
| 2026-05-01 15:06 | 47.10055 | -36.38438 | 37378 ft | 442 kts | 91° |
| 2026-05-01 15:06 | 47.10160 | -36.29459 | 37375 ft | 441 kts | 91° |
| 2026-05-01 15:07 | 47.10257 | -36.20498 | 37375 ft | 441 kts | 91° |
| 2026-05-01 15:07 | 47.10348 | -36.11524 | 37376 ft | 441 kts | 91° |
| 2026-05-01 15:08 | 47.10431 | -36.02516 | 37377 ft | 441 kts | 91° |
| 2026-05-01 15:08 | 47.10508 | -35.93539 | 37382 ft | 440 kts | 91° |
| 2026-05-01 15:09 | 47.10578 | -35.84598 | 37379 ft | 440 kts | 91° |
| 2026-05-01 15:09 | 47.10640 | -35.75625 | 37372 ft | 441 kts | 91° |
| 2026-05-01 15:10 | 47.10696 | -35.66687 | 37365 ft | 440 kts | 91° |
| 2026-05-01 15:10 | 47.10766 | -35.53252 | 37367 ft | 439 kts | 91° |
| 2026-05-01 15:11 | 47.10820 | -35.39831 | 37368 ft | 440 kts | 91° |
| 2026-05-01 15:12 | 47.10847 | -35.30886 | 37367 ft | 439 kts | 92° |
| 2026-05-01 15:12 | 47.10876 | -35.17492 | 37362 ft | 438 kts | 92° |
| 2026-05-01 15:14 | 47.10888 | -34.95206 | 37358 ft | 438 kts | 92° |
| 2026-05-01 15:14 | 47.10875 | -34.81816 | 37362 ft | 438 kts | 92° |
| 2026-05-01 15:15 | 47.10832 | -34.63975 | 37360 ft | 437 kts | 91° |
| 2026-05-01 15:16 | 47.10763 | -34.46150 | 37366 ft | 437 kts | 91° |
| 2026-05-01 15:18 | 47.10636 | -34.23837 | 37384 ft | 438 kts | 92° |
| 2026-05-01 15:19 | 47.10504 | -34.06018 | 37379 ft | 437 kts | 92° |
| 2026-05-01 15:19 | 47.10387 | -33.92671 | 37377 ft | 438 kts | 91° |
| 2026-05-01 15:20 | 47.10255 | -33.79338 | 37383 ft | 436 kts | 91° |
| 2026-05-01 15:21 | 47.10158 | -33.70427 | 37377 ft | 437 kts | 91° |
| 2026-05-01 15:21 | 47.10054 | -33.61530 | 37379 ft | 436 kts | 91° |
| 2026-05-01 15:22 | 47.09886 | -33.48208 | 37376 ft | 437 kts | 91° |
| 2026-05-01 15:22 | 47.09765 | -33.39294 | 37374 ft | 437 kts | 91° |
| 2026-05-01 15:23 | 47.09636 | -33.30354 | 37381 ft | 436 kts | 91° |
| 2026-05-01 15:23 | 47.09502 | -33.21493 | 37383 ft | 437 kts | 91° |
| 2026-05-01 15:24 | 47.09361 | -33.12624 | 37379 ft | 436 kts | 91° |
| 2026-05-01 15:24 | 47.09212 | -33.03734 | 37370 ft | 436 kts | 91° |
| 2026-05-01 15:25 | 47.09057 | -32.94848 | 37365 ft | 436 kts | 91° |
| 2026-05-01 15:25 | 47.08895 | -32.85953 | 37364 ft | 437 kts | 91° |
| 2026-05-01 15:26 | 47.08725 | -32.77060 | 37365 ft | 436 kts | 91° |
| 2026-05-01 15:26 | 47.08550 | -32.68178 | 37364 ft | 436 kts | 91° |
| 2026-05-01 15:27 | 47.08367 | -32.59309 | 37358 ft | 436 kts | 90° |
| 2026-05-01 15:28 | 47.08081 | -32.46008 | 37362 ft | 435 kts | 90° |
| 2026-05-01 15:28 | 47.07881 | -32.37129 | 37359 ft | 436 kts | 90° |
| 2026-05-01 15:29 | 47.07568 | -32.23800 | 37365 ft | 437 kts | 91° |
| 2026-05-01 15:30 | 47.07127 | -32.06036 | 37377 ft | 437 kts | 90° |
| 2026-05-01 15:31 | 47.06413 | -31.79377 | 37374 ft | 437 kts | 90° |
| 2026-05-01 15:32 | 47.05902 | -31.61597 | 37383 ft | 436 kts | 90° |
| 2026-05-01 15:34 | 47.05084 | -31.34913 | 37674 ft | 438 kts | 90° |